sensor_id;sensor_type;location;lat;lon;timestamp;temperature;humidity
51486;DHT22;37565;51.352;6.412;2022-09-12T00:01:07;22.30;99.90
51486;DHT22;37565;51.352;6.412;2022-09-12T00:03:39;22.40;99.90
51486;DHT22;37565;51.352;6.412;2022-09-12T00:06:11;22.40;99.90
51486;DHT22;37565;51.352;6.412;2022-09-12T00:08:40;22.40;99.90
51486;DHT22;37565;51.352;6.412;2022-09-12T00:11:09;22.40;99.90
51486;DHT22;37565;51.352;6.412;2022-09-12T00:13:39;22.30;99.90
51486;DHT22;37565;51.352;6.412;2022-09-12T00:16:14;22.30;99.90
51486;DHT22;37565;51.352;6.412;2022-09-12T00:18:44;22.30;99.90
51486;DHT22;37565;51.352;6.412;2022-09-12T00:21:14;22.30;99.90
51486;DHT22;37565;51.352;6.412;2022-09-12T00:23:42;22.30;99.90
51486;DHT22;37565;51.352;6.412;2022-09-12T00:26:14;22.30;99.90
51486;DHT22;37565;51.352;6.412;2022-09-12T00:28:43;22.30;99.90
51486;DHT22;37565;51.352;6.412;2022-09-12T00:31:14;22.30;99.90
51486;DHT22;37565;51.352;6.412;2022-09-12T00:33:45;22.30;99.90
51486;DHT22;37565;51.352;6.412;2022-09-12T00:36:15;22.30;99.90
51486;DHT22;37565;51.352;6.412;2022-09-12T00:38:46;22.30;99.90
51486;DHT22;37565;51.352;6.412;2022-09-12T00:41:15;22.30;99.90
51486;DHT22;37565;51.352;6.412;2022-09-12T00:43:46;22.30;99.90
51486;DHT22;37565;51.352;6.412;2022-09-12T00:46:26;22.30;99.90
51486;DHT22;37565;51.352;6.412;2022-09-12T00:48:59;22.30;99.90
51486;DHT22;37565;51.352;6.412;2022-09-12T00:51:29;22.30;99.90
51486;DHT22;37565;51.352;6.412;2022-09-12T00:54:02;22.30;99.90
51486;DHT22;37565;51.352;6.412;2022-09-12T00:56:34;22.30;99.90
51486;DHT22;37565;51.352;6.412;2022-09-12T00:59:06;22.30;99.90
51486;DHT22;37565;51.352;6.412;2022-09-12T01:01:36;22.30;99.90
51486;DHT22;37565;51.352;6.412;2022-09-12T01:04:07;22.30;99.90
51486;DHT22;37565;51.352;6.412;2022-09-12T01:06:37;22.30;99.90
51486;DHT22;37565;51.352;6.412;2022-09-12T01:09:06;22.20;99.90
51486;DHT22;37565;51.352;6.412;2022-09-12T01:11:36;22.30;99.90
51486;DHT22;37565;51.352;6.412;2022-09-12T01:14:05;22.20;99.90
51486;DHT22;37565;51.352;6.412;2022-09-12T01:16:34;22.20;99.90
51486;DHT22;37565;51.352;6.412;2022-09-12T01:19:19;22.20;99.90
51486;DHT22;37565;51.352;6.412;2022-09-12T01:22:04;22.20;99.90
51486;DHT22;37565;51.352;6.412;2022-09-12T01:24:51;22.20;99.90
51486;DHT22;37565;51.352;6.412;2022-09-12T01:27:36;22.20;99.90
51486;DHT22;37565;51.352;6.412;2022-09-12T01:30:21;22.20;99.90
51486;DHT22;37565;51.352;6.412;2022-09-12T01:33:15;22.20;99.90
51486;DHT22;37565;51.352;6.412;2022-09-12T01:35:55;22.20;99.90
51486;DHT22;37565;51.352;6.412;2022-09-12T01:38:35;22.20;99.90
51486;DHT22;37565;51.352;6.412;2022-09-12T01:41:09;22.20;99.90
51486;DHT22;37565;51.352;6.412;2022-09-12T01:43:45;22.20;99.90
51486;DHT22;37565;51.352;6.412;2022-09-12T01:46:20;22.20;99.90
51486;DHT22;37565;51.352;6.412;2022-09-12T01:48:54;22.20;99.90
51486;DHT22;37565;51.352;6.412;2022-09-12T01:51:27;22.10;99.90
51486;DHT22;37565;51.352;6.412;2022-09-12T01:54:02;22.20;99.90
51486;DHT22;37565;51.352;6.412;2022-09-12T01:56:35;22.20;99.90
51486;DHT22;37565;51.352;6.412;2022-09-12T01:59:05;22.10;99.90
51486;DHT22;37565;51.352;6.412;2022-09-12T02:01:39;22.10;99.90
51486;DHT22;37565;51.352;6.412;2022-09-12T02:04:12;22.10;99.90
51486;DHT22;37565;51.352;6.412;2022-09-12T02:06:45;22.10;99.90
51486;DHT22;37565;51.352;6.412;2022-09-12T02:09:21;22.10;99.90
51486;DHT22;37565;51.352;6.412;2022-09-12T02:11:53;22.10;99.90
51486;DHT22;37565;51.352;6.412;2022-09-12T02:14:25;22.10;99.90
51486;DHT22;37565;51.352;6.412;2022-09-12T02:16:58;22.10;99.90
51486;DHT22;37565;51.352;6.412;2022-09-12T02:19:31;22.10;99.90
51486;DHT22;37565;51.352;6.412;2022-09-12T02:22:01;22.10;99.90
51486;DHT22;37565;51.352;6.412;2022-09-12T02:24:34;22.10;99.90
51486;DHT22;37565;51.352;6.412;2022-09-12T02:27:06;22.10;99.90
51486;DHT22;37565;51.352;6.412;2022-09-12T02:29:36;22.10;99.90
51486;DHT22;37565;51.352;6.412;2022-09-12T02:32:11;22.10;99.90
51486;DHT22;37565;51.352;6.412;2022-09-12T02:34:46;22.00;99.90
51486;DHT22;37565;51.352;6.412;2022-09-12T02:37:20;22.00;99.90
51486;DHT22;37565;51.352;6.412;2022-09-12T02:39:51;22.10;99.90
51486;DHT22;37565;51.352;6.412;2022-09-12T02:42:21;22.10;99.90
51486;DHT22;37565;51.352;6.412;2022-09-12T02:44:52;22.00;99.90
51486;DHT22;37565;51.352;6.412;2022-09-12T02:47:26;22.00;99.90
51486;DHT22;37565;51.352;6.412;2022-09-12T02:49:55;22.00;99.90
51486;DHT22;37565;51.352;6.412;2022-09-12T02:52:24;22.00;99.90
51486;DHT22;37565;51.352;6.412;2022-09-12T02:54:54;22.00;99.90
51486;DHT22;37565;51.352;6.412;2022-09-12T02:57:22;22.00;99.90
51486;DHT22;37565;51.352;6.412;2022-09-12T02:59:52;22.00;99.90
51486;DHT22;37565;51.352;6.412;2022-09-12T03:02:34;22.00;99.90
51486;DHT22;37565;51.352;6.412;2022-09-12T03:05:15;22.00;99.90
51486;DHT22;37565;51.352;6.412;2022-09-12T03:08:13;22.00;99.90
51486;DHT22;37565;51.352;6.412;2022-09-12T03:11:05;22.00;99.90
51486;DHT22;37565;51.352;6.412;2022-09-12T03:13:41;21.90;99.90
51486;DHT22;37565;51.352;6.412;2022-09-12T03:16:18;22.00;99.90
51486;DHT22;37565;51.352;6.412;2022-09-12T03:18:57;22.00;99.90
51486;DHT22;37565;51.352;6.412;2022-09-12T03:21:32;21.90;99.90
51486;DHT22;37565;51.352;6.412;2022-09-12T03:24:10;22.00;99.90
51486;DHT22;37565;51.352;6.412;2022-09-12T03:26:43;22.00;99.90
51486;DHT22;37565;51.352;6.412;2022-09-12T03:29:12;21.90;99.90
51486;DHT22;37565;51.352;6.412;2022-09-12T03:31:48;21.90;99.90
51486;DHT22;37565;51.352;6.412;2022-09-12T03:34:18;21.90;99.90
51486;DHT22;37565;51.352;6.412;2022-09-12T03:36:47;21.90;99.90
51486;DHT22;37565;51.352;6.412;2022-09-12T03:39:15;21.90;99.90
51486;DHT22;37565;51.352;6.412;2022-09-12T03:41:43;21.90;99.90
51486;DHT22;37565;51.352;6.412;2022-09-12T03:44:11;21.90;99.90
51486;DHT22;37565;51.352;6.412;2022-09-12T03:46:39;21.90;99.90
51486;DHT22;37565;51.352;6.412;2022-09-12T03:49:07;21.90;99.90
51486;DHT22;37565;51.352;6.412;2022-09-12T03:51:37;21.90;99.90
51486;DHT22;37565;51.352;6.412;2022-09-12T03:54:06;21.90;99.90
51486;DHT22;37565;51.352;6.412;2022-09-12T03:56:34;21.90;99.90
51486;DHT22;37565;51.352;6.412;2022-09-12T03:59:04;21.90;99.90
51486;DHT22;37565;51.352;6.412;2022-09-12T04:01:33;21.90;99.90
51486;DHT22;37565;51.352;6.412;2022-09-12T04:04:01;21.80;99.90
51486;DHT22;37565;51.352;6.412;2022-09-12T04:06:31;21.90;99.90
51486;DHT22;37565;51.352;6.412;2022-09-12T04:09:00;21.80;99.90
51486;DHT22;37565;51.352;6.412;2022-09-12T04:11:28;21.80;99.90
51486;DHT22;37565;51.352;6.412;2022-09-12T04:13:57;21.90;99.90
51486;DHT22;37565;51.352;6.412;2022-09-12T04:16:25;21.90;99.90
51486;DHT22;37565;51.352;6.412;2022-09-12T04:18:53;21.80;99.90
51486;DHT22;37565;51.352;6.412;2022-09-12T04:21:21;21.80;99.90
51486;DHT22;37565;51.352;6.412;2022-09-12T04:23:51;21.80;99.90
51486;DHT22;37565;51.352;6.412;2022-09-12T04:26:23;21.80;99.90
51486;DHT22;37565;51.352;6.412;2022-09-12T04:28:53;21.90;99.90
51486;DHT22;37565;51.352;6.412;2022-09-12T04:31:23;21.90;99.90
51486;DHT22;37565;51.352;6.412;2022-09-12T04:33:55;21.90;99.90
51486;DHT22;37565;51.352;6.412;2022-09-12T04:36:25;21.80;99.90
51486;DHT22;37565;51.352;6.412;2022-09-12T04:38:53;21.80;99.90
51486;DHT22;37565;51.352;6.412;2022-09-12T04:41:24;21.80;99.90
51486;DHT22;37565;51.352;6.412;2022-09-12T04:43:53;21.80;99.90
51486;DHT22;37565;51.352;6.412;2022-09-12T04:46:27;21.80;99.90
51486;DHT22;37565;51.352;6.412;2022-09-12T04:48:57;21.80;99.90
51486;DHT22;37565;51.352;6.412;2022-09-12T04:51:27;21.80;99.90
51486;DHT22;37565;51.352;6.412;2022-09-12T04:54:02;21.80;99.90
51486;DHT22;37565;51.352;6.412;2022-09-12T04:56:35;21.80;99.90
51486;DHT22;37565;51.352;6.412;2022-09-12T04:59:03;21.80;99.90
51486;DHT22;37565;51.352;6.412;2022-09-12T05:01:32;21.80;99.90
51486;DHT22;37565;51.352;6.412;2022-09-12T05:04:00;21.70;99.90
51486;DHT22;37565;51.352;6.412;2022-09-12T05:06:30;21.80;99.90
51486;DHT22;37565;51.352;6.412;2022-09-12T05:09:00;21.70;99.90
51486;DHT22;37565;51.352;6.412;2022-09-12T05:11:30;21.80;99.90
51486;DHT22;37565;51.352;6.412;2022-09-12T05:14:20;21.70;99.90
51486;DHT22;37565;51.352;6.412;2022-09-12T05:16:48;21.80;99.90
51486;DHT22;37565;51.352;6.412;2022-09-12T05:19:16;21.70;99.90
51486;DHT22;37565;51.352;6.412;2022-09-12T05:21:44;21.70;99.90
51486;DHT22;37565;51.352;6.412;2022-09-12T05:24:12;21.70;99.90
51486;DHT22;37565;51.352;6.412;2022-09-12T05:26:40;21.70;99.90
51486;DHT22;37565;51.352;6.412;2022-09-12T05:29:08;21.70;99.90
51486;DHT22;37565;51.352;6.412;2022-09-12T05:31:37;21.70;99.90
51486;DHT22;37565;51.352;6.412;2022-09-12T05:34:07;21.80;99.90
51486;DHT22;37565;51.352;6.412;2022-09-12T05:36:36;21.70;99.90
51486;DHT22;37565;51.352;6.412;2022-09-12T05:39:04;21.80;99.90
51486;DHT22;37565;51.352;6.412;2022-09-12T05:41:33;21.80;99.90
51486;DHT22;37565;51.352;6.412;2022-09-12T05:44:03;21.80;99.90
51486;DHT22;37565;51.352;6.412;2022-09-12T05:46:37;21.70;99.90
51486;DHT22;37565;51.352;6.412;2022-09-12T05:49:07;21.70;99.90
51486;DHT22;37565;51.352;6.412;2022-09-12T05:51:37;21.70;99.90
51486;DHT22;37565;51.352;6.412;2022-09-12T05:54:07;21.70;99.90
51486;DHT22;37565;51.352;6.412;2022-09-12T05:56:38;21.70;99.90
51486;DHT22;37565;51.352;6.412;2022-09-12T05:59:09;21.70;99.90
51486;DHT22;37565;51.352;6.412;2022-09-12T06:01:39;21.70;99.90
51486;DHT22;37565;51.352;6.412;2022-09-12T06:04:08;21.80;99.90
51486;DHT22;37565;51.352;6.412;2022-09-12T06:06:39;21.80;99.90
51486;DHT22;37565;51.352;6.412;2022-09-12T06:09:08;21.80;99.90
51486;DHT22;37565;51.352;6.412;2022-09-12T06:11:38;21.80;99.90
51486;DHT22;37565;51.352;6.412;2022-09-12T06:14:08;21.80;99.90
51486;DHT22;37565;51.352;6.412;2022-09-12T06:16:36;21.70;99.90
51486;DHT22;37565;51.352;6.412;2022-09-12T06:19:10;21.80;99.90
51486;DHT22;37565;51.352;6.412;2022-09-12T06:21:39;21.80;99.90
51486;DHT22;37565;51.352;6.412;2022-09-12T06:24:07;21.80;99.90
51486;DHT22;37565;51.352;6.412;2022-09-12T06:26:37;21.80;99.90
51486;DHT22;37565;51.352;6.412;2022-09-12T06:29:05;21.80;99.90
51486;DHT22;37565;51.352;6.412;2022-09-12T06:31:35;21.80;99.90
51486;DHT22;37565;51.352;6.412;2022-09-12T06:34:07;21.80;99.90
51486;DHT22;37565;51.352;6.412;2022-09-12T06:36:37;21.80;99.90
51486;DHT22;37565;51.352;6.412;2022-09-12T06:39:09;21.80;99.90
51486;DHT22;37565;51.352;6.412;2022-09-12T06:41:38;21.80;99.90
51486;DHT22;37565;51.352;6.412;2022-09-12T06:44:11;21.80;99.90
51486;DHT22;37565;51.352;6.412;2022-09-12T06:46:39;21.80;99.90
51486;DHT22;37565;51.352;6.412;2022-09-12T06:49:09;21.80;99.90
51486;DHT22;37565;51.352;6.412;2022-09-12T06:51:37;21.80;99.90
51486;DHT22;37565;51.352;6.412;2022-09-12T06:54:05;21.80;99.90
51486;DHT22;37565;51.352;6.412;2022-09-12T06:56:33;21.80;99.90
51486;DHT22;37565;51.352;6.412;2022-09-12T06:59:01;21.80;99.90
51486;DHT22;37565;51.352;6.412;2022-09-12T07:01:30;21.90;99.90
51486;DHT22;37565;51.352;6.412;2022-09-12T07:04:00;21.90;99.90
51486;DHT22;37565;51.352;6.412;2022-09-12T07:06:34;21.90;99.90
51486;DHT22;37565;51.352;6.412;2022-09-12T07:09:05;21.90;99.90
51486;DHT22;37565;51.352;6.412;2022-09-12T07:11:35;21.80;99.90
51486;DHT22;37565;51.352;6.412;2022-09-12T07:14:05;21.80;99.90
51486;DHT22;37565;51.352;6.412;2022-09-12T07:16:34;21.90;99.90
51486;DHT22;37565;51.352;6.412;2022-09-12T07:19:04;21.90;99.90
51486;DHT22;37565;51.352;6.412;2022-09-12T07:21:36;21.90;99.90
51486;DHT22;37565;51.352;6.412;2022-09-12T07:24:06;21.90;99.90
51486;DHT22;37565;51.352;6.412;2022-09-12T07:26:35;21.90;99.90
51486;DHT22;37565;51.352;6.412;2022-09-12T07:29:03;21.90;99.90
51486;DHT22;37565;51.352;6.412;2022-09-12T07:31:51;21.90;99.90
51486;DHT22;37565;51.352;6.412;2022-09-12T07:34:20;21.90;99.90
51486;DHT22;37565;51.352;6.412;2022-09-12T07:36:52;21.90;99.90
51486;DHT22;37565;51.352;6.412;2022-09-12T07:39:20;21.90;99.90
51486;DHT22;37565;51.352;6.412;2022-09-12T07:41:47;21.90;99.90
51486;DHT22;37565;51.352;6.412;2022-09-12T07:44:15;21.90;99.90
51486;DHT22;37565;51.352;6.412;2022-09-12T07:46:43;21.90;99.90
51486;DHT22;37565;51.352;6.412;2022-09-12T07:49:11;21.90;99.90
51486;DHT22;37565;51.352;6.412;2022-09-12T07:51:41;21.90;99.90
51486;DHT22;37565;51.352;6.412;2022-09-12T07:54:10;21.90;99.90
51486;DHT22;37565;51.352;6.412;2022-09-12T07:56:38;21.90;99.90
51486;DHT22;37565;51.352;6.412;2022-09-12T07:59:06;22.00;99.90
51486;DHT22;37565;51.352;6.412;2022-09-12T08:01:34;21.90;99.90
51486;DHT22;37565;51.352;6.412;2022-09-12T08:04:02;22.00;99.90
51486;DHT22;37565;51.352;6.412;2022-09-12T08:06:32;22.00;99.90
51486;DHT22;37565;51.352;6.412;2022-09-12T08:09:03;22.00;99.90
51486;DHT22;37565;51.352;6.412;2022-09-12T08:11:33;22.00;99.90
51486;DHT22;37565;51.352;6.412;2022-09-12T08:14:01;22.00;99.90
51486;DHT22;37565;51.352;6.412;2022-09-12T08:16:31;22.10;99.90
51486;DHT22;37565;51.352;6.412;2022-09-12T08:19:00;22.20;99.90
51486;DHT22;37565;51.352;6.412;2022-09-12T08:21:30;22.30;99.90
51486;DHT22;37565;51.352;6.412;2022-09-12T08:23:59;22.20;99.90
51486;DHT22;37565;51.352;6.412;2022-09-12T08:26:31;22.20;99.90
51486;DHT22;37565;51.352;6.412;2022-09-12T08:29:01;22.30;99.90
51486;DHT22;37565;51.352;6.412;2022-09-12T08:31:30;22.30;99.90
51486;DHT22;37565;51.352;6.412;2022-09-12T08:34:03;22.30;99.90
51486;DHT22;37565;51.352;6.412;2022-09-12T08:36:31;22.30;99.90
51486;DHT22;37565;51.352;6.412;2022-09-12T08:39:01;22.20;99.90
51486;DHT22;37565;51.352;6.412;2022-09-12T08:41:31;22.20;99.90
51486;DHT22;37565;51.352;6.412;2022-09-12T08:44:14;22.20;99.90
51486;DHT22;37565;51.352;6.412;2022-09-12T08:46:53;22.20;99.90
51486;DHT22;37565;51.352;6.412;2022-09-12T08:49:26;22.30;99.90
51486;DHT22;37565;51.352;6.412;2022-09-12T08:51:58;22.30;99.90
51486;DHT22;37565;51.352;6.412;2022-09-12T08:54:29;22.20;99.90
51486;DHT22;37565;51.352;6.412;2022-09-12T08:57:04;22.20;99.90
51486;DHT22;37565;51.352;6.412;2022-09-12T08:59:38;22.20;99.90
51486;DHT22;37565;51.352;6.412;2022-09-12T09:02:28;22.20;99.90
51486;DHT22;37565;51.352;6.412;2022-09-12T09:05:03;22.20;99.90
51486;DHT22;37565;51.352;6.412;2022-09-12T09:07:58;22.20;99.90
51486;DHT22;37565;51.352;6.412;2022-09-12T09:10:35;22.20;99.90
51486;DHT22;37565;51.352;6.412;2022-09-12T09:13:13;22.10;99.90
51486;DHT22;37565;51.352;6.412;2022-09-12T09:16:10;22.10;99.90
51486;DHT22;37565;51.352;6.412;2022-09-12T09:18:42;22.10;99.90
51486;DHT22;37565;51.352;6.412;2022-09-12T09:21:20;22.10;99.90
51486;DHT22;37565;51.352;6.412;2022-09-12T09:23:54;22.10;99.90
51486;DHT22;37565;51.352;6.412;2022-09-12T09:26:28;22.10;99.90
51486;DHT22;37565;51.352;6.412;2022-09-12T09:29:00;22.00;99.90
51486;DHT22;37565;51.352;6.412;2022-09-12T09:31:37;22.00;99.90
51486;DHT22;37565;51.352;6.412;2022-09-12T09:34:12;22.00;99.90
51486;DHT22;37565;51.352;6.412;2022-09-12T09:36:48;22.00;99.90
51486;DHT22;37565;51.352;6.412;2022-09-12T09:39:32;22.00;99.90
51486;DHT22;37565;51.352;6.412;2022-09-12T09:42:26;22.00;99.90
51486;DHT22;37565;51.352;6.412;2022-09-12T09:44:58;22.00;99.90
51486;DHT22;37565;51.352;6.412;2022-09-12T09:47:28;22.00;99.90
51486;DHT22;37565;51.352;6.412;2022-09-12T09:49:59;22.10;99.90
51486;DHT22;37565;51.352;6.412;2022-09-12T09:52:28;22.10;99.90
51486;DHT22;37565;51.352;6.412;2022-09-12T09:54:59;22.00;99.90
51486;DHT22;37565;51.352;6.412;2022-09-12T09:57:39;22.10;99.90
51486;DHT22;37565;51.352;6.412;2022-09-12T10:00:22;22.00;99.90
51486;DHT22;37565;51.352;6.412;2022-09-12T10:03:23;22.10;99.90
51486;DHT22;37565;51.352;6.412;2022-09-12T10:05:54;22.10;99.90
51486;DHT22;37565;51.352;6.412;2022-09-12T10:08:24;22.10;99.90
51486;DHT22;37565;51.352;6.412;2022-09-12T10:10:54;22.10;99.90
51486;DHT22;37565;51.352;6.412;2022-09-12T10:13:27;22.10;99.90
51486;DHT22;37565;51.352;6.412;2022-09-12T10:15:59;22.10;99.90
51486;DHT22;37565;51.352;6.412;2022-09-12T10:18:42;22.10;99.90
51486;DHT22;37565;51.352;6.412;2022-09-12T10:21:16;22.10;99.90
51486;DHT22;37565;51.352;6.412;2022-09-12T10:23:47;22.10;99.90
51486;DHT22;37565;51.352;6.412;2022-09-12T10:26:20;22.10;99.90
51486;DHT22;37565;51.352;6.412;2022-09-12T10:28:50;22.10;99.90
51486;DHT22;37565;51.352;6.412;2022-09-12T10:31:24;22.10;99.90
51486;DHT22;37565;51.352;6.412;2022-09-12T10:33:56;22.20;99.90
51486;DHT22;37565;51.352;6.412;2022-09-12T10:36:26;22.20;99.90
51486;DHT22;37565;51.352;6.412;2022-09-12T10:39:02;22.20;99.90
51486;DHT22;37565;51.352;6.412;2022-09-12T10:41:37;22.30;99.90
51486;DHT22;37565;51.352;6.412;2022-09-12T10:44:07;22.30;99.90
51486;DHT22;37565;51.352;6.412;2022-09-12T10:46:36;22.30;99.90
51486;DHT22;37565;51.352;6.412;2022-09-12T10:49:26;22.30;99.90
51486;DHT22;37565;51.352;6.412;2022-09-12T10:51:55;22.40;99.90
51486;DHT22;37565;51.352;6.412;2022-09-12T10:54:27;22.40;99.90
51486;DHT22;37565;51.352;6.412;2022-09-12T10:57:06;22.40;99.90
51486;DHT22;37565;51.352;6.412;2022-09-12T11:02:39;22.50;99.90
51486;DHT22;37565;51.352;6.412;2022-09-12T11:05:21;22.50;99.90
51486;DHT22;37565;51.352;6.412;2022-09-12T11:07:57;22.50;99.90
51486;DHT22;37565;51.352;6.412;2022-09-12T11:10:30;22.50;99.90
51486;DHT22;37565;51.352;6.412;2022-09-12T11:13:20;22.50;99.90
51486;DHT22;37565;51.352;6.412;2022-09-12T11:16:10;22.50;99.90
51486;DHT22;37565;51.352;6.412;2022-09-12T11:18:55;22.50;99.90
51486;DHT22;37565;51.352;6.412;2022-09-12T11:21:44;22.50;99.90
51486;DHT22;37565;51.352;6.412;2022-09-12T11:24:22;22.40;99.90
51486;DHT22;37565;51.352;6.412;2022-09-12T11:27:00;22.40;99.90
51486;DHT22;37565;51.352;6.412;2022-09-12T11:29:46;22.40;99.90
51486;DHT22;37565;51.352;6.412;2022-09-12T11:35:36;22.50;99.90
51486;DHT22;37565;51.352;6.412;2022-09-12T11:41:08;22.60;99.90
51486;DHT22;37565;51.352;6.412;2022-09-12T11:43:42;22.60;99.90
51486;DHT22;37565;51.352;6.412;2022-09-12T11:46:17;22.60;99.90
51486;DHT22;37565;51.352;6.412;2022-09-12T11:48:52;22.60;99.90
51486;DHT22;37565;51.352;6.412;2022-09-12T11:51:25;22.70;99.90
51486;DHT22;37565;51.352;6.412;2022-09-12T11:54:04;22.70;99.90
51486;DHT22;37565;51.352;6.412;2022-09-12T11:56:37;22.60;99.90
51486;DHT22;37565;51.352;6.412;2022-09-12T11:59:12;22.70;99.90
51486;DHT22;37565;51.352;6.412;2022-09-12T12:01:43;22.70;99.90
51486;DHT22;37565;51.352;6.412;2022-09-12T12:04:21;22.70;99.90
51486;DHT22;37565;51.352;6.412;2022-09-12T12:07:00;22.70;99.90
51486;DHT22;37565;51.352;6.412;2022-09-12T12:09:31;22.70;99.90
51486;DHT22;37565;51.352;6.412;2022-09-12T12:12:02;22.70;99.90
51486;DHT22;37565;51.352;6.412;2022-09-12T12:14:37;22.70;99.90
51486;DHT22;37565;51.352;6.412;2022-09-12T12:17:19;22.70;99.90
51486;DHT22;37565;51.352;6.412;2022-09-12T12:19:56;22.70;99.90
51486;DHT22;37565;51.352;6.412;2022-09-12T12:22:32;22.70;99.90
51486;DHT22;37565;51.352;6.412;2022-09-12T12:25:24;22.80;99.90
51486;DHT22;37565;51.352;6.412;2022-09-12T12:27:56;22.80;99.90
51486;DHT22;37565;51.352;6.412;2022-09-12T12:33:53;22.80;99.90
51486;DHT22;37565;51.352;6.412;2022-09-12T12:36:31;22.80;99.90
51486;DHT22;37565;51.352;6.412;2022-09-12T12:46:01;22.80;99.90
51486;DHT22;37565;51.352;6.412;2022-09-12T12:48:33;22.80;99.90
51486;DHT22;37565;51.352;6.412;2022-09-12T12:54:03;22.80;99.90
51486;DHT22;37565;51.352;6.412;2022-09-12T12:56:40;22.80;99.90
51486;DHT22;37565;51.352;6.412;2022-09-12T12:59:18;22.80;99.90
51486;DHT22;37565;51.352;6.412;2022-09-12T13:01:50;22.80;99.90
51486;DHT22;37565;51.352;6.412;2022-09-12T13:04:23;22.80;99.90
51486;DHT22;37565;51.352;6.412;2022-09-12T13:06:58;22.80;99.90
51486;DHT22;37565;51.352;6.412;2022-09-12T13:09:37;22.80;99.90
51486;DHT22;37565;51.352;6.412;2022-09-12T13:12:08;22.80;99.90
51486;DHT22;37565;51.352;6.412;2022-09-12T13:14:53;22.80;99.90
51486;DHT22;37565;51.352;6.412;2022-09-12T13:17:26;22.80;99.90
51486;DHT22;37565;51.352;6.412;2022-09-12T13:20:13;22.80;99.90
51486;DHT22;37565;51.352;6.412;2022-09-12T13:22:59;22.80;99.90
51486;DHT22;37565;51.352;6.412;2022-09-12T13:25:29;22.80;99.90
51486;DHT22;37565;51.352;6.412;2022-09-12T13:28:00;22.80;99.90
51486;DHT22;37565;51.352;6.412;2022-09-12T13:30:31;22.80;99.90
51486;DHT22;37565;51.352;6.412;2022-09-12T13:33:10;22.80;99.90
51486;DHT22;37565;51.352;6.412;2022-09-12T13:35:49;22.80;99.90
51486;DHT22;37565;51.352;6.412;2022-09-12T13:38:27;22.80;99.90
51486;DHT22;37565;51.352;6.412;2022-09-12T13:41:19;22.80;99.90
51486;DHT22;37565;51.352;6.412;2022-09-12T13:43:52;22.80;99.90
51486;DHT22;37565;51.352;6.412;2022-09-12T13:46:25;22.80;99.90
51486;DHT22;37565;51.352;6.412;2022-09-12T13:48:58;22.90;99.90
51486;DHT22;37565;51.352;6.412;2022-09-12T13:51:29;22.80;99.90
51486;DHT22;37565;51.352;6.412;2022-09-12T13:54:02;22.90;99.90
51486;DHT22;37565;51.352;6.412;2022-09-12T13:56:31;22.80;99.90
51486;DHT22;37565;51.352;6.412;2022-09-12T13:59:00;22.80;99.90
51486;DHT22;37565;51.352;6.412;2022-09-12T14:01:38;22.90;99.90
51486;DHT22;37565;51.352;6.412;2022-09-12T14:04:14;22.90;99.90
51486;DHT22;37565;51.352;6.412;2022-09-12T14:07:02;22.90;99.90
51486;DHT22;37565;51.352;6.412;2022-09-12T14:09:38;22.90;99.90
51486;DHT22;37565;51.352;6.412;2022-09-12T14:12:14;22.90;99.90
51486;DHT22;37565;51.352;6.412;2022-09-12T14:14:48;22.90;99.90
51486;DHT22;37565;51.352;6.412;2022-09-12T14:17:21;22.90;99.90
51486;DHT22;37565;51.352;6.412;2022-09-12T14:19:52;22.90;99.90
51486;DHT22;37565;51.352;6.412;2022-09-12T14:22:21;22.90;99.90
51486;DHT22;37565;51.352;6.412;2022-09-12T14:24:50;22.90;99.90
51486;DHT22;37565;51.352;6.412;2022-09-12T14:27:20;22.90;99.90
51486;DHT22;37565;51.352;6.412;2022-09-12T14:29:55;22.90;99.90
51486;DHT22;37565;51.352;6.412;2022-09-12T14:32:24;22.90;99.90
51486;DHT22;37565;51.352;6.412;2022-09-12T14:35:16;22.90;99.90
51486;DHT22;37565;51.352;6.412;2022-09-12T14:37:47;23.00;99.90
51486;DHT22;37565;51.352;6.412;2022-09-12T14:40:18;23.00;99.90
51486;DHT22;37565;51.352;6.412;2022-09-12T14:42:48;23.00;99.90
51486;DHT22;37565;51.352;6.412;2022-09-12T14:45:21;23.00;99.90
51486;DHT22;37565;51.352;6.412;2022-09-12T14:47:51;23.00;99.90
51486;DHT22;37565;51.352;6.412;2022-09-12T14:50:24;23.00;99.90
51486;DHT22;37565;51.352;6.412;2022-09-12T14:53:03;23.00;99.90
51486;DHT22;37565;51.352;6.412;2022-09-12T14:55:33;23.00;99.90
51486;DHT22;37565;51.352;6.412;2022-09-12T14:58:14;23.00;99.90
51486;DHT22;37565;51.352;6.412;2022-09-12T15:00:53;23.00;99.90
51486;DHT22;37565;51.352;6.412;2022-09-12T15:03:25;23.00;99.90
51486;DHT22;37565;51.352;6.412;2022-09-12T15:05:55;23.00;99.90
51486;DHT22;37565;51.352;6.412;2022-09-12T15:08:23;23.00;99.90
51486;DHT22;37565;51.352;6.412;2022-09-12T15:10:51;23.00;99.90
51486;DHT22;37565;51.352;6.412;2022-09-12T15:13:21;23.00;99.90
51486;DHT22;37565;51.352;6.412;2022-09-12T15:15:52;23.10;99.90
51486;DHT22;37565;51.352;6.412;2022-09-12T15:18:23;23.00;99.90
51486;DHT22;37565;51.352;6.412;2022-09-12T15:20:55;23.10;99.90
51486;DHT22;37565;51.352;6.412;2022-09-12T15:23:31;23.10;99.90
51486;DHT22;37565;51.352;6.412;2022-09-12T15:25:59;23.10;99.90
51486;DHT22;37565;51.352;6.412;2022-09-12T15:28:29;23.00;99.90
51486;DHT22;37565;51.352;6.412;2022-09-12T15:31:03;23.10;99.90
51486;DHT22;37565;51.352;6.412;2022-09-12T15:33:32;23.10;99.90
51486;DHT22;37565;51.352;6.412;2022-09-12T15:36:01;23.10;99.90
51486;DHT22;37565;51.352;6.412;2022-09-12T15:38:29;23.10;99.90
51486;DHT22;37565;51.352;6.412;2022-09-12T15:40:57;23.10;99.90
51486;DHT22;37565;51.352;6.412;2022-09-12T15:43:25;23.10;99.90
51486;DHT22;37565;51.352;6.412;2022-09-12T15:45:53;23.10;99.90
51486;DHT22;37565;51.352;6.412;2022-09-12T15:48:21;23.10;99.90
51486;DHT22;37565;51.352;6.412;2022-09-12T15:50:50;23.10;99.90
51486;DHT22;37565;51.352;6.412;2022-09-12T15:53:19;23.10;99.90
51486;DHT22;37565;51.352;6.412;2022-09-12T15:55:47;23.10;99.90
51486;DHT22;37565;51.352;6.412;2022-09-12T15:58:15;23.10;99.90
51486;DHT22;37565;51.352;6.412;2022-09-12T16:00:43;23.10;99.90
51486;DHT22;37565;51.352;6.412;2022-09-12T16:03:20;23.10;99.90
51486;DHT22;37565;51.352;6.412;2022-09-12T16:05:49;23.10;99.90
51486;DHT22;37565;51.352;6.412;2022-09-12T16:08:17;23.10;99.90
51486;DHT22;37565;51.352;6.412;2022-09-12T16:10:47;23.10;99.90
51486;DHT22;37565;51.352;6.412;2022-09-12T16:13:16;23.10;99.90
51486;DHT22;37565;51.352;6.412;2022-09-12T16:15:44;23.10;99.90
51486;DHT22;37565;51.352;6.412;2022-09-12T16:18:12;23.20;99.90
51486;DHT22;37565;51.352;6.412;2022-09-12T16:20:41;23.20;99.90
51486;DHT22;37565;51.352;6.412;2022-09-12T16:23:10;23.10;99.90
51486;DHT22;37565;51.352;6.412;2022-09-12T16:25:38;23.10;99.90
51486;DHT22;37565;51.352;6.412;2022-09-12T16:28:08;23.20;99.90